Aérodrome :
LOGIN :

S'inscrire | Disclaimer

   EN    FR    IT 

 










Légende :    VFR   VFR Marginal   IFR   IFR Intensif   IFR Très Intensif
Visi : 
Plafond : 
>= 8 km
>= 3000ft
5 à 8 km
1000 à 3000 ft
1500m à 5 km
500 à 1000 ft
800 à 1500m
200 à 500 ft
< 800m
< 200 ft
Symboles :   Orages  Brouillard  Fortes neiges  Fortes précipitations  Vent > 20 kt
SIGMETs :   Divers  Orages  Givrage  Turbulence  Onde Orograph.  Cendres Volcan.







- Altitude de l'aérodrome : 65 ft
- Code IATA : PIK
- Voir les cartes d'approche


EGPK - Glasgow Prestwick

DERNIER METAR :
  • 160450Z 14006KT 9999 FEW025 SCT048 10/09 Q1008

METARs EXPIRÉS :
  • 160350Z 13006KT 9999 FEW028 SCT049 10/08 Q1008
  • 160250Z 13007KT 9999 FEW028 SCT049 11/08 Q1008

TAF TAF EGPK
Valide du 16 à 06h jusqu'au 17 à 06h UTC


160501Z 1606/1706 21009KT 9999 SCT045
PROB40
TEMPO 1608/1619 6000 SHRA
TEMPO 1619/1701 6000 RA BKN014
PROB30
TEMPO 1619/1624 3000 +RA BKN009
PROB40
TEMPO 1701/1706 BKN012
Pas de NOTAMs connus pour ce terrain.



MET'MAP, la Météo Aéronautique d'un coup d'oeil ! - Copyright ORBIFLY Décembre 2007 - Disclaimer

ORBIFLY MET'MAP TEAM :

Programmation & Développement : Alexandra Zaïnal
Conception & Développement : Baudouin d'Aumeries
Co-Programmation & Développement : Marc-Olivier Méhu
Soutien technique & logistique : Manuel Goepfert

Contact : metmap@orbifly.com




SOURCES & CREDITS :

   NOAA